Time;durP1;ratioP1;P1;durP2;ratioP2;P2;SDS_P1;SDS_P2;PMS_P1;PMS_P2;Temp;Humidity;BMP_temperature;BMP_pressure;BME280_temperature;BME280_humidity;BME280_pressure;Samples;Min_cycle;Max_cycle;Signal;HPM_P1;HPM_P2
2023/07/14 00:01:45;;;;;;;235.57;217.63;;;;;;;;;;5043593;28;20491;-62
2023/07/14 00:04:13;;;;;;;253.45;230.95;;;;;;;;;;5031866;28;20064;-62
2023/07/14 00:06:41;;;;;;;230.38;213.80;;;;;;;;;;5038777;28;20466;-62
2023/07/14 00:09:22;;;;;;;226.07;210.23;;;;;;;;;;5013770;28;20049;-59
2023/07/14 00:11:48;;;;;;;217.02;201.00;;;;;;;;;;5039251;28;20046;-59
2023/07/14 00:14:15;;;;;;;227.35;209.80;;;;;;;;;;5040048;28;20049;-62
2023/07/14 00:16:42;;;;;;;213.40;196.93;;;;;;;;;;5023730;28;20137;-63
2023/07/14 00:19:11;;;;;;;228.27;207.50;;;;;;;;;;5035680;28;20664;-60
2023/07/14 00:21:37;;;;;;;223.32;208.15;;;;;;;;;;5033865;28;20069;-61
2023/07/14 00:24:05;;;;;;;215.63;198.45;;;;;;;;;;5048282;28;20050;-62
2023/07/14 00:26:31;;;;;;;203.82;188.90;;;;;;;;;;5044529;28;20144;-62
2023/07/14 00:28:59;;;;;;;196.07;180.75;;;;;;;;;;5024199;28;20041;-65
2023/07/14 00:31:27;;;;;;;198.63;183.23;;;;;;;;;;5047167;28;20145;-60
2023/07/14 00:33:54;;;;;;;192.07;177.55;;;;;;;;;;5018978;28;20128;-60
2023/07/14 00:36:22;;;;;;;177.88;164.68;;;;;;;;;;5025193;28;20045;-64
2023/07/14 00:38:48;;;;;;;167.82;155.63;;;;;;;;;;5024103;28;20049;-63
2023/07/14 00:41:21;;;;;;;165.32;151.82;;;;;;;;;;5032228;28;20042;-59
2023/07/14 00:43:49;;;;;;;170.05;156.68;;;;;;;;;;5047623;28;20047;-59
2023/07/14 00:46:29;;;;;;;174.52;156.38;;;;;;;;;;5034892;28;20488;-62
2023/07/14 00:48:58;;;;;;;158.43;146.45;;;;;;;;;;5025923;28;20114;-63
2023/07/14 00:51:26;;;;;;;162.73;149.77;;;;;;;;;;5024009;28;20049;-62
2023/07/14 00:53:52;;;;;;;154.48;143.48;;;;;;;;;;5022653;28;20125;-61
2023/07/14 00:56:27;;;;;;;152.38;139.02;;;;;;;;;;5045085;28;20038;-63
2023/07/14 00:58:54;;;;;;;144.52;132.48;;;;;;;;;;5034504;28;20445;-62
2023/07/14 01:01:22;;;;;;;152.00;138.55;;;;;;;;;;5033968;28;20049;-63
2023/07/14 01:03:50;;;;;;;144.73;132.85;;;;;;;;;;5035516;28;20124;-61
2023/07/14 01:06:19;;;;;;;140.50;128.77;;;;;;;;;;5018114;28;20132;-62
2023/07/14 01:08:46;;;;;;;142.07;131.00;;;;;;;;;;5041795;28;20050;-62
2023/07/14 01:11:15;;;;;;;142.88;129.30;;;;;;;;;;5048326;28;20041;-60
2023/07/14 01:13:42;;;;;;;144.65;131.23;;;;;;;;;;5033126;28;20049;-61
2023/07/14 01:16:11;;;;;;;164.32;146.63;;;;;;;;;;5034856;28;20048;-60
2023/07/14 01:18:38;;;;;;;145.57;133.40;;;;;;;;;;5034216;28;20095;-60
2023/07/14 01:21:05;;;;;;;144.32;132.73;;;;;;;;;;5025928;28;20054;-62
2023/07/14 01:23:46;;;;;;;139.63;128.95;;;;;;;;;;5030887;28;20050;-62
2023/07/14 01:26:37;;;;;;;132.45;121.35;;;;;;;;;;5049487;28;20029;-62
2023/07/14 01:29:08;;;;;;;131.38;120.72;;;;;;;;;;5027106;28;20509;-60
2023/07/14 01:31:35;;;;;;;140.50;127.90;;;;;;;;;;5034621;28;20072;-62
2023/07/14 01:34:02;;;;;;;133.73;122.35;;;;;;;;;;5033195;28;20045;-58
2023/07/14 01:36:29;;;;;;;129.45;118.78;;;;;;;;;;5040888;28;20049;-61
2023/07/14 01:38:55;;;;;;;131.48;121.10;;;;;;;;;;5043169;28;20037;-62
2023/07/14 01:41:22;;;;;;;132.70;122.20;;;;;;;;;;5039999;28;20128;-61
2023/07/14 01:43:51;;;;;;;131.82;121.80;;;;;;;;;;5022696;28;20055;-61
2023/07/14 01:46:20;;;;;;;162.10;127.45;;;;;;;;;;5033625;28;20116;-61
2023/07/14 01:48:56;;;;;;;124.50;114.28;;;;;;;;;;5044308;28;20060;-57
2023/07/14 01:51:24;;;;;;;184.70;125.80;;;;;;;;;;5031109;28;20151;-61
2023/07/14 01:53:58;;;;;;;121.70;112.35;;;;;;;;;;5030469;28;20045;-62
2023/07/14 01:56:26;;;;;;;126.05;115.45;;;;;;;;;;5007018;28;20037;-62
2023/07/14 01:59:03;;;;;;;124.85;113.40;;;;;;;;;;5021436;28;20544;-61
2023/07/14 02:01:32;;;;;;;206.07;157.93;;;;;;;;;;5040982;22;20156;-60
2023/07/14 02:04:04;;;;;;;149.05;135.75;;;;;;;;;;5033893;28;20056;-58
2023/07/14 02:06:32;;;;;;;149.60;136.60;;;;;;;;;;5039695;28;20053;-60
2023/07/14 02:08:59;;;;;;;141.82;129.80;;;;;;;;;;5045603;28;20403;-59
2023/07/14 02:11:27;;;;;;;140.90;129.52;;;;;;;;;;5023969;28;20064;-60
2023/07/14 02:13:55;;;;;;;142.57;130.82;;;;;;;;;;5046201;28;20072;-59
2023/07/14 02:16:23;;;;;;;150.30;136.90;;;;;;;;;;5023611;28;20541;-61
2023/07/14 02:18:53;;;;;;;152.45;136.65;;;;;;;;;;5023493;28;20080;-61
2023/07/14 02:21:30;;;;;;;142.98;131.07;;;;;;;;;;5046020;28;20044;-60
2023/07/14 02:23:59;;;;;;;140.55;129.00;;;;;;;;;;5040694;28;20056;-58
2023/07/14 02:26:27;;;;;;;145.90;133.40;;;;;;;;;;5032443;28;20045;-59
2023/07/14 02:28:55;;;;;;;135.45;124.55;;;;;;;;;;5042579;28;20389;-59
2023/07/14 02:31:30;;;;;;;143.40;129.52;;;;;;;;;;5042685;28;20068;-61
2023/07/14 02:33:59;;;;;;;140.00;128.20;;;;;;;;;;5031222;28;20052;-62
2023/07/14 02:36:47;;;;;;;147.88;134.65;;;;;;;;;;5046535;28;20076;-61
2023/07/14 02:39:14;;;;;;;145.80;133.35;;;;;;;;;;5021524;28;20049;-61
2023/07/14 02:41:42;;;;;;;144.70;132.13;;;;;;;;;;5045536;28;20065;-61
2023/07/14 02:44:12;;;;;;;148.48;134.55;;;;;;;;;;5041150;28;20104;-62
2023/07/14 02:47:02;;;;;;;156.80;141.48;;;;;;;;;;5031379;28;20045;-61
2023/07/14 02:49:29;;;;;;;144.48;130.55;;;;;;;;;;5031627;28;20728;-61
2023/07/14 02:51:56;;;;;;;145.65;133.43;;;;;;;;;;5043383;28;20064;-62
2023/07/14 02:54:25;;;;;;;139.68;128.35;;;;;;;;;;5021609;28;20053;-62
2023/07/14 02:56:52;;;;;;;139.82;127.90;;;;;;;;;;5021993;28;20045;-62
2023/07/14 02:59:19;;;;;;;146.10;133.70;;;;;;;;;;5042082;28;20128;-61
2023/07/14 03:01:47;;;;;;;155.60;141.63;;;;;;;;;;5043216;28;20502;-61
2023/07/14 03:04:13;;;;;;;164.98;146.27;;;;;;;;;;5041494;28;20410;-61
2023/07/14 03:06:41;;;;;;;146.95;135.82;;;;;;;;;;5039339;28;20076;-61
2023/07/14 03:09:10;;;;;;;149.15;135.43;;;;;;;;;;5042291;28;20119;-62
2023/07/14 03:11:37;;;;;;;149.40;136.48;;;;;;;;;;5040590;28;20053;-61
2023/07/14 03:14:05;;;;;;;144.95;133.75;;;;;;;;;;5041834;28;20041;-62
2023/07/14 03:16:33;;;;;;;159.40;144.13;;;;;;;;;;5024090;28;20483;-62
2023/07/14 03:19:01;;;;;;;151.30;137.70;;;;;;;;;;5039467;28;20107;-61
2023/07/14 03:21:28;;;;;;;152.90;140.38;;;;;;;;;;5043630;28;20053;-61
2023/07/14 03:23:55;;;;;;;158.50;143.68;;;;;;;;;;5044278;28;20038;-62
2023/07/14 03:26:23;;;;;;;159.82;145.20;;;;;;;;;;5030759;28;20088;-61
2023/07/14 03:28:50;;;;;;;157.60;144.55;;;;;;;;;;5040557;28;20044;-61
2023/07/14 03:31:17;;;;;;;182.95;162.10;;;;;;;;;;5031308;28;20045;-62
2023/07/14 03:33:44;;;;;;;162.38;149.90;;;;;;;;;;5040809;28;20045;-62
2023/07/14 03:36:15;;;;;;;173.82;156.98;;;;;;;;;;5040191;28;20501;-62
2023/07/14 03:38:43;;;;;;;171.45;156.43;;;;;;;;;;5042367;28;20049;-63
2023/07/14 03:41:11;;;;;;;157.23;144.57;;;;;;;;;;5021438;28;20049;-62
2023/07/14 03:43:39;;;;;;;164.85;151.45;;;;;;;;;;5040518;28;20044;-61
2023/07/14 03:46:07;;;;;;;178.27;159.43;;;;;;;;;;5025376;28;20029;-61
2023/07/14 03:48:34;;;;;;;158.18;146.25;;;;;;;;;;5044424;28;20445;-61
2023/07/14 03:51:02;;;;;;;168.93;154.95;;;;;;;;;;5028528;28;20053;-62
2023/07/14 03:53:29;;;;;;;175.27;159.48;;;;;;;;;;5027065;28;20095;-61
2023/07/14 03:55:57;;;;;;;173.93;159.48;;;;;;;;;;5043953;28;20114;-61
2023/07/14 03:58:24;;;;;;;169.98;155.68;;;;;;;;;;5026808;28;20052;-62
2023/07/14 04:00:57;;;;;;;176.93;162.15;;;;;;;;;;5044664;28;20517;-62
2023/07/14 04:03:25;;;;;;;173.87;159.90;;;;;;;;;;5023164;28;20048;-61
2023/07/14 04:05:51;;;;;;;189.80;172.93;;;;;;;;;;5027153;28;20672;-61
2023/07/14 04:08:19;;;;;;;193.50;177.45;;;;;;;;;;5009784;28;20477;-61
2023/07/14 04:10:46;;;;;;;193.07;176.60;;;;;;;;;;5026736;28;20095;-61
2023/07/14 04:13:13;;;;;;;193.57;175.60;;;;;;;;;;5023474;28;20516;-62
2023/07/14 04:15:40;;;;;;;188.75;173.70;;;;;;;;;;5021515;28;20499;-63
2023/07/14 04:18:07;;;;;;;182.80;168.20;;;;;;;;;;5025486;28;20125;-61
2023/07/14 04:20:34;;;;;;;181.20;167.13;;;;;;;;;;5018141;28;20076;-62
2023/07/14 04:23:01;;;;;;;166.27;153.65;;;;;;;;;;5025374;28;20465;-61
2023/07/14 04:25:28;;;;;;;171.55;156.68;;;;;;;;;;5023390;28;20572;-61
2023/07/14 04:27:55;;;;;;;165.88;151.60;;;;;;;;;;5025177;28;20049;-62
2023/07/14 04:30:22;;;;;;;151.27;138.75;;;;;;;;;;5023921;28;20056;-62
2023/07/14 04:32:52;;;;;;;146.80;134.40;;;;;;;;;;5028228;28;20120;-62
2023/07/14 04:35:19;;;;;;;153.52;139.98;;;;;;;;;;5022913;28;20128;-61
2023/07/14 04:37:45;;;;;;;137.52;125.63;;;;;;;;;;5024195;28;20088;-61
2023/07/14 04:40:12;;;;;;;157.27;138.77;;;;;;;;;;5023645;28;20073;-62
2023/07/14 04:42:59;;;;;;;138.20;126.82;;;;;;;;;;5017701;28;20656;-61
2023/07/14 04:45:26;;;;;;;142.23;131.43;;;;;;;;;;5023294;28;20068;-61
2023/07/14 04:47:53;;;;;;;147.82;135.75;;;;;;;;;;5025433;28;20053;-62
2023/07/14 04:50:20;;;;;;;146.25;133.07;;;;;;;;;;5027163;28;20049;-61
2023/07/14 04:52:47;;;;;;;152.05;138.32;;;;;;;;;;5024418;28;20041;-61
2023/07/14 04:55:14;;;;;;;165.23;147.35;;;;;;;;;;5025047;28;20037;-61
2023/07/14 04:57:43;;;;;;;141.25;129.35;;;;;;;;;;5022897;28;20499;-64
2023/07/14 05:00:11;;;;;;;138.75;127.40;;;;;;;;;;5026513;28;20476;-61
2023/07/14 05:02:37;;;;;;;150.13;138.40;;;;;;;;;;5035697;28;20461;-63
2023/07/14 05:05:09;;;;;;;144.35;133.27;;;;;;;;;;5042741;28;20047;-61
2023/07/14 05:07:36;;;;;;;166.57;151.85;;;;;;;;;;5044242;28;20045;-63
2023/07/14 05:10:03;;;;;;;170.32;156.35;;;;;;;;;;5043666;28;20092;-66
2023/07/14 05:12:30;;;;;;;167.27;153.18;;;;;;;;;;5042121;28;20082;-62
2023/07/14 05:15:01;;;;;;;175.75;161.30;;;;;;;;;;5046536;28;20048;-61
2023/07/14 05:17:28;;;;;;;179.07;165.38;;;;;;;;;;5042370;28;20397;-62
2023/07/14 05:19:56;;;;;;;173.23;159.10;;;;;;;;;;5043468;28;20053;-61
2023/07/14 05:22:23;;;;;;;176.50;159.75;;;;;;;;;;5045410;28;20545;-63
2023/07/14 05:24:50;;;;;;;160.60;148.07;;;;;;;;;;5041575;28;20140;-67
2023/07/14 05:27:17;;;;;;;174.07;160.07;;;;;;;;;;5043680;28;20053;-62
2023/07/14 05:29:45;;;;;;;167.45;153.82;;;;;;;;;;5042451;28;20038;-60
2023/07/14 05:32:12;;;;;;;180.65;161.68;;;;;;;;;;5043595;28;20091;-60
2023/07/14 05:34:39;;;;;;;162.18;146.75;;;;;;;;;;5043913;28;20445;-59
2023/07/14 05:37:06;;;;;;;169.13;154.18;;;;;;;;;;5043775;28;20045;-63
2023/07/14 05:39:34;;;;;;;155.82;141.88;;;;;;;;;;5035627;28;20045;-60
2023/07/14 05:42:03;;;;;;;143.00;131.85;;;;;;;;;;5046517;28;20514;-58
2023/07/14 05:44:30;;;;;;;148.18;134.80;;;;;;;;;;5031990;28;20041;-60
2023/07/14 05:46:57;;;;;;;163.73;148.13;;;;;;;;;;5043922;28;20070;-58
2023/07/14 05:49:24;;;;;;;160.05;145.30;;;;;;;;;;5042867;28;20576;-60
2023/07/14 05:51:52;;;;;;;150.23;138.52;;;;;;;;;;5042326;28;20049;-62
2023/07/14 05:54:20;;;;;;;159.98;146.38;;;;;;;;;;5042431;28;20513;-61
2023/07/14 05:56:47;;;;;;;164.70;150.23;;;;;;;;;;5046593;28;20056;-60
2023/07/14 05:59:14;;;;;;;173.50;158.05;;;;;;;;;;5045319;28;20041;-63
2023/07/14 06:01:41;;;;;;;176.68;161.65;;;;;;;;;;5043604;28;20048;-64
2023/07/14 06:04:07;;;;;;;178.10;163.57;;;;;;;;;;5043165;28;20081;-61
2023/07/14 06:06:34;;;;;;;183.43;168.55;;;;;;;;;;5041898;28;20081;-59
2023/07/14 06:09:02;;;;;;;323.75;297.38;;;;;;;;;;5043002;28;20068;-62
2023/07/14 06:11:29;;;;;;;332.75;306.85;;;;;;;;;;5045109;28;20094;-59
2023/07/14 06:16:04;;;;;;;333.67;303.25;;;;;;;;;;5071498;22;1699651;-73
2023/07/14 06:18:31;;;;;;;300.45;272.48;;;;;;;;;;5121621;28;20047;-62
2023/07/14 06:20:58;;;;;;;321.70;289.38;;;;;;;;;;5121392;28;20043;-62
2023/07/14 06:23:26;;;;;;;310.48;280.67;;;;;;;;;;5115693;28;20070;-62
2023/07/14 06:26:00;;;;;;;305.90;275.90;;;;;;;;;;5123030;28;20044;-63
2023/07/14 06:28:27;;;;;;;318.58;283.95;;;;;;;;;;5119086;28;20039;-62
2023/07/14 06:30:58;;;;;;;306.48;278.65;;;;;;;;;;5118673;28;20046;-63
2023/07/14 06:33:25;;;;;;;328.20;296.52;;;;;;;;;;5120244;28;20040;-63
2023/07/14 06:35:53;;;;;;;315.73;287.83;;;;;;;;;;5120813;28;20511;-63
2023/07/14 06:38:20;;;;;;;332.50;302.42;;;;;;;;;;5117147;28;20066;-65
2023/07/14 06:40:54;;;;;;;347.80;313.63;;;;;;;;;;5121151;28;20131;-62
2023/07/14 06:43:21;;;;;;;359.90;322.13;;;;;;;;;;5119563;28;20484;-68
2023/07/14 06:45:48;;;;;;;345.90;312.85;;;;;;;;;;5125681;28;20126;-62
2023/07/14 06:48:15;;;;;;;337.52;306.92;;;;;;;;;;5124074;28;20131;-65
2023/07/14 06:50:42;;;;;;;332.95;302.27;;;;;;;;;;5117635;28;20550;-62
2023/07/14 06:53:10;;;;;;;347.33;314.38;;;;;;;;;;5123064;28;20046;-63
2023/07/14 06:55:38;;;;;;;342.75;309.90;;;;;;;;;;5118707;28;20036;-62
2023/07/14 06:58:05;;;;;;;341.98;311.00;;;;;;;;;;5116330;28;20100;-75
2023/07/14 07:00:33;;;;;;;357.90;323.30;;;;;;;;;;5124251;28;20071;-62
2023/07/14 07:03:01;;;;;;;360.85;326.50;;;;;;;;;;5104066;28;20097;-63
2023/07/14 07:05:29;;;;;;;346.80;314.65;;;;;;;;;;5121079;28;20050;-61
2023/07/14 07:07:56;;;;;;;351.95;318.85;;;;;;;;;;5117755;28;20505;-62
2023/07/14 07:10:23;;;;;;;354.27;316.92;;;;;;;;;;5118164;28;20048;-63
2023/07/14 07:12:50;;;;;;;334.55;303.90;;;;;;;;;;5122284;27;20115;-63
2023/07/14 07:15:17;;;;;;;326.83;296.58;;;;;;;;;;5120057;27;20063;-63
2023/07/14 07:17:46;;;;;;;320.45;291.85;;;;;;;;;;5119956;28;20043;-61
2023/07/14 07:20:13;;;;;;;333.45;304.17;;;;;;;;;;5124355;27;20055;-63
2023/07/14 07:22:41;;;;;;;368.23;330.40;;;;;;;;;;5119114;28;20054;-62
2023/07/14 07:25:08;;;;;;;345.67;313.35;;;;;;;;;;5114792;28;20465;-62
2023/07/14 07:27:35;;;;;;;350.25;317.48;;;;;;;;;;5103317;28;20081;-63
2023/07/14 07:30:03;;;;;;;338.05;306.52;;;;;;;;;;5091547;28;20052;-63
2023/07/14 07:32:31;;;;;;;354.95;319.10;;;;;;;;;;5110707;28;20028;-63
2023/07/14 07:35:00;;;;;;;350.70;318.40;;;;;;;;;;5104449;28;20123;-62
2023/07/14 07:37:28;;;;;;;359.20;323.77;;;;;;;;;;5104723;28;20097;-62
2023/07/14 07:39:55;;;;;;;344.85;312.52;;;;;;;;;;5102396;28;20453;-62
2023/07/14 07:42:23;;;;;;;335.60;305.48;;;;;;;;;;5100657;27;20044;-62
2023/07/14 07:44:50;;;;;;;337.25;305.83;;;;;;;;;;5106359;28;20040;-64
2023/07/14 07:47:17;;;;;;;339.88;308.33;;;;;;;;;;5103964;28;20044;-68
2023/07/14 07:49:44;;;;;;;348.02;314.02;;;;;;;;;;5105293;28;20039;-61
2023/07/14 07:52:12;;;;;;;345.98;312.30;;;;;;;;;;5104148;28;20138;-65
2023/07/14 07:54:39;;;;;;;357.92;325.98;;;;;;;;;;5109510;27;20138;-64
2023/07/14 07:57:08;;;;;;;353.30;323.50;;;;;;;;;;5121448;27;20086;-62
2023/07/14 07:59:35;;;;;;;370.00;335.27;;;;;;;;;;5104174;28;20048;-65
2023/07/14 08:02:02;;;;;;;344.90;316.10;;;;;;;;;;5107076;28;20062;-63
2023/07/14 08:04:30;;;;;;;371.80;336.58;;;;;;;;;;5111631;28;20043;-64
2023/07/14 08:06:57;;;;;;;359.83;327.58;;;;;;;;;;5103399;28;20101;-63
2023/07/14 08:09:24;;;;;;;338.63;306.52;;;;;;;;;;5105108;28;20093;-66
2023/07/14 08:11:57;;;;;;;343.38;313.38;;;;;;;;;;5088798;28;20090;-63
2023/07/14 08:14:25;;;;;;;339.67;310.23;;;;;;;;;;5104669;28;20480;-70
2023/07/14 08:16:52;;;;;;;349.58;319.13;;;;;;;;;;5087701;28;20044;-65
2023/07/14 08:19:19;;;;;;;352.85;317.90;;;;;;;;;;5104018;28;20047;-62
2023/07/14 08:21:46;;;;;;;339.00;309.73;;;;;;;;;;5105259;28;20433;-61
2023/07/14 08:24:13;;;;;;;335.88;307.90;;;;;;;;;;5104621;28;20043;-67
2023/07/14 08:26:40;;;;;;;341.20;311.42;;;;;;;;;;5105434;28;20045;-65
2023/07/14 08:29:08;;;;;;;346.52;313.95;;;;;;;;;;5103851;28;20057;-66
2023/07/14 08:31:35;;;;;;;331.48;302.42;;;;;;;;;;5101827;28;20078;-63
2023/07/14 08:34:04;;;;;;;332.40;304.63;;;;;;;;;;5111421;28;20634;-63
2023/07/14 08:36:31;;;;;;;347.38;315.38;;;;;;;;;;5101925;28;20098;-63
2023/07/14 08:38:58;;;;;;;341.40;310.90;;;;;;;;;;5105484;28;20097;-63
2023/07/14 08:41:28;;;;;;;344.33;315.00;;;;;;;;;;5085407;28;20401;-66
2023/07/14 08:44:17;;;;;;;344.60;313.90;;;;;;;;;;5105137;28;20131;-62
2023/07/14 08:47:04;;;;;;;335.85;304.00;;;;;;;;;;5103818;28;20407;-63
2023/07/14 08:49:39;;;;;;;331.70;301.90;;;;;;;;;;5104036;28;20040;-67
2023/07/14 08:52:15;;;;;;;333.52;302.85;;;;;;;;;;5111174;28;20044;-63
2023/07/14 08:54:45;;;;;;;328.15;299.77;;;;;;;;;;5103001;28;20078;-63
2023/07/14 08:57:17;;;;;;;326.85;300.02;;;;;;;;;;5106360;28;20055;-66
2023/07/14 08:59:45;;;;;;;313.90;289.02;;;;;;;;;;5101967;28;20046;-63
2023/07/14 09:02:25;;;;;;;324.25;298.70;;;;;;;;;;5104144;28;20442;-64
2023/07/14 09:04:58;;;;;;;301.50;277.33;;;;;;;;;;5103792;28;20040;-65
2023/07/14 09:07:25;;;;;;;306.88;276.27;;;;;;;;;;5101354;28;20067;-68
2023/07/14 09:09:52;;;;;;;296.50;272.10;;;;;;;;;;5102387;28;20575;-67
2023/07/14 09:12:23;;;;;;;306.95;281.60;;;;;;;;;;5105916;28;20040;-63
2023/07/14 09:14:56;;;;;;;317.08;291.77;;;;;;;;;;5099265;28;20062;-63
2023/07/14 09:17:42;;;;;;;320.60;296.13;;;;;;;;;;5102849;28;20050;-63
2023/07/14 09:20:12;;;;;;;316.08;291.88;;;;;;;;;;5107266;28;20043;-62
2023/07/14 09:23:00;;;;;;;319.60;292.52;;;;;;;;;;5103130;28;20070;-69
2023/07/14 09:25:31;;;;;;;330.58;301.35;;;;;;;;;;5116837;27;20058;-62
2023/07/14 09:27:58;;;;;;;318.40;292.52;;;;;;;;;;5104423;28;20051;-62
2023/07/14 09:30:27;;;;;;;322.85;297.15;;;;;;;;;;5103462;28;20046;-65
2023/07/14 09:33:03;;;;;;;337.80;311.33;;;;;;;;;;5089326;28;20586;-63
2023/07/14 09:35:31;;;;;;;338.77;313.20;;;;;;;;;;5104869;28;20046;-63
2023/07/14 09:38:17;;;;;;;342.80;315.13;;;;;;;;;;5104247;28;20040;-66
2023/07/14 09:40:46;;;;;;;357.33;327.38;;;;;;;;;;5108037;28;20048;-66
2023/07/14 09:43:12;;;;;;;351.50;321.27;;;;;;;;;;5094100;28;20078;-66
2023/07/14 09:45:40;;;;;;;364.50;335.83;;;;;;;;;;5114613;28;20043;-63
2023/07/14 09:48:22;;;;;;;349.85;322.30;;;;;;;;;;5114805;28;20055;-64
2023/07/14 09:50:54;;;;;;;359.50;328.98;;;;;;;;;;5110435;28;20107;-64
2023/07/14 09:53:21;;;;;;;375.47;343.67;;;;;;;;;;5116031;28;20067;-65
2023/07/14 09:55:53;;;;;;;369.65;339.80;;;;;;;;;;5111876;28;20063;-62
2023/07/14 09:58:21;;;;;;;387.77;352.25;;;;;;;;;;5110975;28;20097;-65
2023/07/14 10:00:49;;;;;;;382.25;351.27;;;;;;;;;;5112202;28;20131;-63
2023/07/14 10:03:17;;;;;;;370.25;342.45;;;;;;;;;;5116803;28;20048;-63
2023/07/14 10:06:11;;;;;;;381.70;350.20;;;;;;;;;;5111993;28;20044;-64
2023/07/14 10:08:54;;;;;;;378.38;347.55;;;;;;;;;;5113721;28;20123;-62
2023/07/14 10:11:21;;;;;;;387.45;356.23;;;;;;;;;;5100596;28;20096;-63
2023/07/14 10:13:57;;;;;;;386.40;350.25;;;;;;;;;;5111851;28;20061;-62
2023/07/14 10:16:24;;;;;;;382.42;347.23;;;;;;;;;;5108454;28;20086;-63
2023/07/14 10:18:56;;;;;;;382.20;350.55;;;;;;;;;;5111590;28;20071;-68
2023/07/14 10:21:28;;;;;;;388.38;356.42;;;;;;;;;;5115089;28;20040;-63
2023/07/14 10:23:56;;;;;;;400.80;367.65;;;;;;;;;;5115297;28;20047;-63
2023/07/14 10:26:23;;;;;;;391.55;360.05;;;;;;;;;;5112598;28;20044;-66
2023/07/14 10:28:51;;;;;;;392.83;357.98;;;;;;;;;;5092725;28;20046;-65
2023/07/14 10:31:18;;;;;;;399.15;362.95;;;;;;;;;;5111728;28;20104;-67
2023/07/14 10:34:02;;;;;;;371.75;341.60;;;;;;;;;;5106572;28;20078;-64
2023/07/14 10:36:34;;;;;;;380.40;349.02;;;;;;;;;;5097157;28;20048;-64
2023/07/14 10:39:06;;;;;;;375.07;344.63;;;;;;;;;;5106516;28;20125;-68
2023/07/14 10:41:33;;;;;;;373.05;343.45;;;;;;;;;;5111461;28;20315;-62
2023/07/14 10:44:11;;;;;;;382.08;351.58;;;;;;;;;;5110832;28;20024;-63
2023/07/14 10:46:44;;;;;;;403.25;368.67;;;;;;;;;;5112437;28;20059;-66
2023/07/14 10:49:14;;;;;;;421.42;384.45;;;;;;;;;;5111307;28;20036;-68
2023/07/14 10:51:48;;;;;;;396.08;363.35;;;;;;;;;;5109810;28;20075;-64
2023/07/14 10:54:17;;;;;;;430.52;396.10;;;;;;;;;;5113782;28;20058;-63
2023/07/14 10:57:00;;;;;;;417.15;383.02;;;;;;;;;;5111672;28;20114;-65
2023/07/14 10:59:34;;;;;;;430.47;393.50;;;;;;;;;;5095518;28;20047;-62
2023/07/14 11:02:10;;;;;;;398.15;365.30;;;;;;;;;;5096554;28;20043;-67
2023/07/14 11:04:40;;;;;;;421.65;385.40;;;;;;;;;;5114150;28;20052;-64
2023/07/14 11:07:14;;;;;;;399.88;367.00;;;;;;;;;;5121376;28;20040;-64
2023/07/14 11:09:41;;;;;;;401.13;369.27;;;;;;;;;;5094660;28;20051;-65
2023/07/14 11:12:22;;;;;;;397.83;363.65;;;;;;;;;;5125458;27;20049;-66
2023/07/14 11:14:58;;;;;;;402.25;367.48;;;;;;;;;;5112307;28;20036;-63
2023/07/14 11:17:39;;;;;;;402.67;367.00;;;;;;;;;;5114215;28;20044;-64
2023/07/14 11:20:09;;;;;;;394.17;360.70;;;;;;;;;;5117375;28;20040;-62
2023/07/14 11:22:55;;;;;;;412.08;378.25;;;;;;;;;;5114231;28;20047;-65
2023/07/14 11:25:30;;;;;;;401.30;363.45;;;;;;;;;;5118661;28;20055;-65
2023/07/14 11:28:19;;;;;;;409.48;368.10;;;;;;;;;;5113565;28;20040;-62
2023/07/14 11:30:48;;;;;;;391.08;359.63;;;;;;;;;;5118173;28;20059;-62
2023/07/14 11:33:21;;;;;;;384.80;353.35;;;;;;;;;;5111733;28;20051;-64
2023/07/14 11:35:51;;;;;;;388.75;355.83;;;;;;;;;;5109567;28;20067;-62
2023/07/14 11:38:36;;;;;;;410.67;375.00;;;;;;;;;;5111159;28;20085;-63
2023/07/14 11:41:04;;;;;;;406.17;370.10;;;;;;;;;;5108218;28;20127;-62
2023/07/14 11:43:32;;;;;;;411.05;374.80;;;;;;;;;;5109100;28;20039;-62
2023/07/14 11:49:34;;;;;;;399.25;361.92;;;;;;;;;;4850896;22;1614779;-61
2023/07/14 11:52:12;;;;;;;369.23;337.88;;;;;;;;;;5061583;28;20570;-63
2023/07/14 11:54:40;;;;;;;388.60;357.08;;;;;;;;;;5058074;28;20055;-65
2023/07/14 11:57:14;;;;;;;363.50;331.27;;;;;;;;;;5059841;28;20048;-66
2023/07/14 11:59:50;;;;;;;329.65;299.88;;;;;;;;;;5048998;28;20053;-62
2023/07/14 12:02:38;;;;;;;315.58;288.35;;;;;;;;;;5048271;28;20497;-61
2023/07/14 12:05:15;;;;;;;306.25;281.48;;;;;;;;;;5060506;28;20045;-63
2023/07/14 12:08:01;;;;;;;301.10;270.88;;;;;;;;;;5049622;28;20044;-61
2023/07/14 12:10:43;;;;;;;303.60;272.77;;;;;;;;;;5059515;28;20075;-65
2023/07/14 12:13:16;;;;;;;290.38;265.98;;;;;;;;;;5062224;28;20048;-66
2023/07/14 12:15:44;;;;;;;300.38;275.17;;;;;;;;;;5061513;28;20549;-62
2023/07/14 12:18:33;;;;;;;289.75;264.10;;;;;;;;;;5063401;28;20053;-66
2023/07/14 12:21:18;;;;;;;282.92;257.85;;;;;;;;;;5060662;28;20048;-67
2023/07/14 12:23:51;;;;;;;275.70;251.82;;;;;;;;;;5049937;28;20075;-62
2023/07/14 12:26:18;;;;;;;;;;;;;;;;;;5061571;28;20473;-61
2023/07/14 12:28:47;;;;;;;271.92;248.25;;;;;;;;;;5046024;28;19928;-65
2023/07/14 12:31:19;;;;;;;290.35;261.90;;;;;;;;;;5042631;28;20493;-62
2023/07/14 12:33:46;;;;;;;281.98;257.25;;;;;;;;;;5047285;28;20053;-66
2023/07/14 12:36:18;;;;;;;275.45;248.23;;;;;;;;;;5058748;28;20052;-62
2023/07/14 12:38:47;;;;;;;271.30;245.57;;;;;;;;;;5062896;28;20049;-63
2023/07/14 12:41:16;;;;;;;270.48;246.85;;;;;;;;;;5058176;28;20454;-62
2023/07/14 12:43:51;;;;;;;273.65;249.30;;;;;;;;;;5041794;28;20047;-62
2023/07/14 12:46:23;;;;;;;296.48;266.42;;;;;;;;;;5056942;28;20041;-62
2023/07/14 12:48:56;;;;;;;277.27;252.65;;;;;;;;;;5056277;28;20068;-61
2023/07/14 12:51:23;;;;;;;273.40;249.27;;;;;;;;;;5059371;28;20041;-66
2023/07/14 12:53:58;;;;;;;265.73;241.43;;;;;;;;;;5038847;28;20508;-64
2023/07/14 12:56:27;;;;;;;268.27;243.88;;;;;;;;;;5058135;28;20036;-62
2023/07/14 12:58:57;;;;;;;269.58;244.35;;;;;;;;;;5056206;28;20132;-62
2023/07/14 13:01:24;;;;;;;280.77;253.18;;;;;;;;;;5036354;28;20077;-62
2023/07/14 13:03:51;;;;;;;277.45;252.95;;;;;;;;;;5026976;28;20057;-65
2023/07/14 13:06:21;;;;;;;273.90;249.95;;;;;;;;;;5027302;28;20045;-62
2023/07/14 13:08:49;;;;;;;265.48;242.40;;;;;;;;;;5034548;28;20033;-62
2023/07/14 13:11:19;;;;;;;252.80;230.95;;;;;;;;;;5034240;28;20037;-61
2023/07/14 13:13:50;;;;;;;263.17;240.35;;;;;;;;;;5010024;28;20509;-64
2023/07/14 13:16:18;;;;;;;277.58;250.43;;;;;;;;;;5042829;28;20045;-63
2023/07/14 13:18:55;;;;;;;283.02;259.60;;;;;;;;;;5035792;28;20106;-61
2023/07/14 13:21:47;;;;;;;273.13;250.40;;;;;;;;;;5048326;28;20045;-62
2023/07/14 13:24:15;;;;;;;270.33;246.57;;;;;;;;;;5026335;28;20049;-63
2023/07/14 13:27:05;;;;;;;274.55;251.18;;;;;;;;;;5021277;28;20044;-62
2023/07/14 13:29:34;;;;;;;260.15;238.63;;;;;;;;;;5047897;28;20053;-66
2023/07/14 13:32:15;;;;;;;271.98;249.35;;;;;;;;;;5044067;28;20110;-65
2023/07/14 13:34:42;;;;;;;294.25;267.05;;;;;;;;;;5045392;28;20496;-72
2023/07/14 13:37:11;;;;;;;268.60;245.85;;;;;;;;;;5043472;28;20103;-64
2023/07/14 13:39:40;;;;;;;272.02;250.07;;;;;;;;;;5049521;28;20447;-63
2023/07/14 13:42:23;;;;;;;272.42;249.60;;;;;;;;;;5033874;28;20099;-65
2023/07/14 13:44:51;;;;;;;277.33;253.32;;;;;;;;;;5025514;28;20072;-62
2023/07/14 13:47:25;;;;;;;272.67;249.57;;;;;;;;;;5042525;28;20124;-62
2023/07/14 13:49:53;;;;;;;289.30;265.35;;;;;;;;;;5025817;28;20481;-62
2023/07/14 13:52:31;;;;;;;285.45;258.83;;;;;;;;;;5044188;28;20041;-62
2023/07/14 13:54:59;;;;;;;283.58;259.63;;;;;;;;;;5044282;28;20491;-62
2023/07/14 13:57:26;;;;;;;282.20;260.00;;;;;;;;;;5045231;28;20068;-67
2023/07/14 13:59:53;;;;;;;273.88;252.10;;;;;;;;;;5036817;28;20041;-63
2023/07/14 14:02:23;;;;;;;279.40;255.43;;;;;;;;;;5043314;28;20052;-63
2023/07/14 14:04:50;;;;;;;277.63;249.23;;;;;;;;;;5038818;28;20040;-63
2023/07/14 14:07:17;;;;;;;269.95;245.63;;;;;;;;;;5046882;28;20045;-63
2023/07/14 14:09:44;;;;;;;276.00;253.77;;;;;;;;;;5055689;28;20068;-63
2023/07/14 14:12:11;;;;;;;264.48;243.43;;;;;;;;;;5055383;28;20524;-65
2023/07/14 14:14:40;;;;;;;271.38;249.02;;;;;;;;;;5051553;28;20124;-65